createdAt,value
2023-03-25T00:00:00.559Z,7.3
2023-03-25T00:04:00.539Z,7.3
2023-03-25T00:08:00.543Z,7.3
2023-03-25T00:12:00.560Z,7.4
2023-03-25T00:16:00.536Z,7.4
2023-03-25T00:20:00.549Z,7.5
2023-03-25T00:24:00.541Z,7.4
2023-03-25T00:28:00.566Z,7.2
2023-03-25T00:32:00.513Z,7.3
2023-03-25T00:36:00.567Z,7.6
2023-03-25T00:40:00.529Z,7.6
2023-03-25T00:44:00.540Z,7.7
2023-03-25T00:48:00.559Z,7.7
2023-03-25T00:52:00.550Z,7.8
2023-03-25T00:56:00.550Z,7.9
2023-03-25T01:00:00.528Z,7.9
2023-03-25T01:04:01.052Z,7.8
2023-03-25T01:08:00.550Z,7.6
2023-03-25T01:12:00.532Z,7.6
2023-03-25T01:16:00.557Z,7.5
2023-03-25T01:20:00.567Z,7.5
2023-03-25T01:24:00.541Z,7.3
2023-03-25T01:28:00.550Z,7.1
2023-03-25T01:32:00.534Z,7.1
2023-03-25T01:36:00.583Z,6.8
2023-03-25T01:40:00.553Z,6.6
2023-03-25T01:44:00.546Z,6.5
2023-03-25T01:48:00.577Z,6.6
2023-03-25T01:52:00.555Z,6.4
2023-03-25T01:56:00.546Z,6.4
2023-03-25T02:00:00.568Z,6.3
2023-03-25T02:04:00.600Z,6.4
2023-03-25T02:08:00.578Z,6.7
2023-03-25T02:12:00.543Z,7.0
2023-03-25T02:16:00.584Z,7.3
2023-03-25T02:20:00.523Z,7.4
2023-03-25T02:24:00.555Z,7.4
2023-03-25T02:28:00.774Z,7.5
2023-03-25T02:32:00.551Z,7.6
2023-03-25T02:36:00.571Z,7.6
2023-03-25T02:40:00.567Z,7.6
2023-03-25T02:44:00.554Z,7.5
2023-03-25T02:48:00.718Z,7.7
2023-03-25T02:52:00.531Z,7.7
2023-03-25T02:56:00.540Z,7.9
2023-03-25T03:00:00.559Z,8.0
2023-03-25T03:04:00.567Z,8.1
2023-03-25T03:08:00.517Z,8.2
2023-03-25T03:12:00.538Z,8.2
2023-03-25T03:16:00.522Z,8.2
2023-03-25T03:20:00.542Z,8.1
2023-03-25T03:24:00.570Z,8.3
2023-03-25T03:28:00.544Z,8.4
2023-03-25T03:32:06.317Z,8.5
2023-03-25T03:36:00.570Z,8.6
2023-03-25T03:40:00.517Z,8.6
2023-03-25T03:44:00.555Z,8.6
2023-03-25T03:48:00.570Z,8.8
2023-03-25T03:52:00.545Z,8.9
2023-03-25T03:56:00.527Z,8.9
2023-03-25T04:00:00.563Z,8.8
2023-03-25T04:04:00.555Z,8.8
2023-03-25T04:08:00.558Z,8.6
2023-03-25T04:12:00.535Z,8.6
2023-03-25T04:16:00.598Z,8.6
2023-03-25T04:20:00.556Z,8.6
2023-03-25T04:24:00.545Z,8.5
2023-03-25T04:28:00.538Z,8.3
2023-03-25T04:32:00.568Z,8.3
2023-03-25T04:36:00.598Z,8.3
2023-03-25T04:40:00.700Z,8.4
2023-03-25T04:44:00.559Z,8.4
2023-03-25T04:48:00.643Z,8.4
2023-03-25T04:52:00.562Z,8.3
2023-03-25T04:56:00.526Z,8.3
2023-03-25T05:00:00.536Z,8.4
2023-03-25T05:04:00.587Z,8.4
2023-03-25T05:08:00.584Z,8.4
2023-03-25T05:12:00.588Z,8.4
2023-03-25T05:16:00.585Z,8.4
2023-03-25T05:20:00.537Z,8.6
2023-03-25T05:24:00.566Z,8.5
2023-03-25T05:28:00.525Z,8.3
2023-03-25T05:32:00.710Z,8.2
2023-03-25T05:36:00.551Z,8.2
2023-03-25T05:40:00.585Z,8.1
2023-03-25T05:44:00.555Z,8.1
2023-03-25T05:48:00.610Z,8.2
2023-03-25T05:52:00.546Z,8.4
2023-03-25T05:56:00.565Z,8.7
2023-03-25T06:00:00.525Z,8.9
2023-03-25T06:04:00.674Z,9.1
2023-03-25T06:08:00.544Z,9.2
2023-03-25T06:12:00.545Z,9.1
2023-03-25T06:16:00.558Z,9.2
2023-03-25T06:20:00.556Z,9.2
2023-03-25T06:24:00.525Z,9.3
2023-03-25T06:28:00.552Z,9.4
2023-03-25T06:32:00.564Z,9.4
2023-03-25T06:36:00.572Z,9.3
2023-03-25T06:40:00.565Z,9.3
2023-03-25T06:44:00.556Z,9.2
2023-03-25T06:48:00.603Z,9.3
2023-03-25T06:52:00.569Z,9.3
2023-03-25T06:56:00.553Z,9.4
2023-03-25T07:00:00.543Z,9.4
2023-03-25T07:04:00.541Z,9.5
2023-03-25T07:08:00.574Z,9.5
2023-03-25T07:12:00.536Z,9.7
2023-03-25T07:16:00.586Z,9.9
2023-03-25T07:20:00.534Z,10.1
2023-03-25T07:24:00.564Z,10.2
2023-03-25T07:28:00.547Z,10.1
2023-03-25T07:32:00.567Z,10.4
2023-03-25T07:36:00.558Z,10.5
2023-03-25T07:40:00.555Z,10.5
2023-03-25T07:44:00.546Z,10.5
2023-03-25T07:48:00.603Z,10.5
2023-03-25T07:52:00.561Z,10.4
2023-03-25T07:56:00.576Z,11.5
2023-03-25T08:00:00.561Z,12.4
2023-03-25T08:04:00.598Z,13.2
2023-03-25T08:08:00.542Z,13.8
2023-03-25T08:12:00.556Z,13.1
2023-03-25T08:16:00.543Z,12.3
2023-03-25T08:20:00.562Z,14.0
2023-03-25T08:24:00.533Z,13.7
2023-03-25T08:28:00.564Z,13.1
2023-03-25T08:32:00.682Z,12.7
2023-03-25T08:36:00.588Z,12.4
2023-03-25T08:40:00.548Z,12.3
2023-03-25T08:44:00.558Z,12.0
2023-03-25T08:48:00.558Z,11.7
2023-03-25T08:52:00.545Z,11.7
2023-03-25T08:56:00.537Z,12.1
2023-03-25T09:00:00.527Z,12.5
2023-03-25T09:04:00.585Z,12.6
2023-03-25T09:08:00.544Z,12.9
2023-03-25T09:12:00.557Z,12.9
2023-03-25T09:16:00.606Z,12.9
2023-03-25T09:20:00.530Z,12.9
2023-03-25T09:24:00.558Z,12.9
2023-03-25T09:28:00.539Z,12.9
2023-03-25T09:32:00.541Z,12.9
2023-03-25T09:36:00.584Z,12.9
2023-03-25T09:40:00.556Z,12.9
2023-03-25T09:44:00.545Z,12.9
2023-03-25T09:48:00.584Z,12.9
2023-03-25T09:52:00.570Z,12.9
2023-03-25T09:56:00.517Z,12.9
2023-03-25T10:00:00.558Z,12.9
2023-03-25T10:04:00.537Z,12.9
2023-03-25T10:08:00.551Z,11.8
2023-03-25T10:12:00.558Z,11.6
2023-03-25T10:16:00.611Z,11.7
2023-03-25T10:20:00.559Z,11.9
2023-03-25T10:24:00.544Z,12.5
2023-03-25T10:28:00.577Z,13.0
2023-03-25T10:32:00.593Z,14.7
2023-03-25T10:36:00.628Z,16.1
2023-03-25T10:40:00.538Z,15.9
2023-03-25T10:44:00.569Z,15.7
2023-03-25T10:48:00.579Z,16.0
2023-03-25T10:52:00.563Z,16.0
2023-03-25T10:56:00.535Z,15.6
2023-03-25T11:00:00.546Z,14.4
2023-03-25T11:04:00.552Z,14.3
2023-03-25T11:08:00.689Z,13.8
2023-03-25T11:12:00.550Z,13.3
2023-03-25T11:16:00.587Z,13.3
2023-03-25T11:20:00.560Z,13.3
2023-03-25T11:24:00.559Z,16.2
2023-03-25T11:28:00.549Z,15.0
2023-03-25T11:32:00.562Z,13.5
2023-03-25T11:36:00.561Z,14.7
2023-03-25T11:40:00.574Z,15.9
2023-03-25T11:44:00.547Z,15.7
2023-03-25T11:48:00.619Z,15.8
2023-03-25T11:52:00.546Z,15.2
2023-03-25T11:56:00.551Z,15.3
2023-03-25T12:00:00.530Z,17.3
2023-03-25T12:04:00.619Z,16.5
2023-03-25T12:08:00.554Z,16.8
2023-03-25T12:12:00.608Z,15.3
2023-03-25T12:16:00.565Z,14.0
2023-03-25T12:20:00.565Z,13.5
2023-03-25T12:24:00.567Z,13.7
2023-03-25T12:28:00.553Z,14.9
2023-03-25T12:32:00.553Z,15.3
2023-03-25T12:36:00.543Z,14.6
2023-03-25T12:40:02.059Z,13.9
2023-03-25T12:44:00.528Z,13.7
2023-03-25T12:48:00.569Z,13.7
2023-03-25T12:52:00.532Z,14.3
2023-03-25T12:56:00.551Z,14.5
2023-03-25T13:00:00.525Z,15.5
2023-03-25T13:04:00.543Z,17.4
2023-03-25T13:08:00.538Z,16.2
2023-03-25T13:12:00.545Z,13.7
2023-03-25T13:16:00.541Z,13.5
2023-03-25T13:20:00.584Z,13.3
2023-03-25T13:24:00.532Z,14.1
2023-03-25T13:28:00.547Z,15.2
2023-03-25T13:32:00.551Z,15.8
2023-03-25T13:36:00.567Z,16.2
2023-03-25T13:40:00.524Z,16.5
2023-03-25T13:44:00.552Z,16.1
2023-03-25T13:48:00.553Z,14.2
2023-03-25T13:52:00.538Z,13.5
2023-03-25T13:56:00.556Z,13.3
2023-03-25T14:00:00.549Z,12.6
2023-03-25T14:04:00.569Z,12.2
2023-03-25T14:08:00.527Z,10.1
2023-03-25T14:12:00.535Z,8.3
2023-03-25T14:16:00.593Z,8.7
2023-03-25T14:20:00.533Z,9.0
2023-03-25T14:24:00.538Z,9.4
2023-03-25T14:28:00.514Z,9.7
2023-03-25T14:32:00.526Z,9.8
2023-03-25T14:36:00.585Z,9.9
2023-03-25T14:40:00.677Z,9.9
2023-03-25T14:44:00.520Z,9.7
2023-03-25T14:48:00.644Z,10.1
2023-03-25T14:52:00.514Z,10.3
2023-03-25T14:56:00.536Z,11.5
2023-03-25T15:00:00.517Z,12.0
2023-03-25T15:04:00.533Z,12.2
2023-03-25T15:08:00.543Z,11.9
2023-03-25T15:12:00.525Z,12.0
2023-03-25T15:16:00.562Z,12.0
2023-03-25T15:20:00.560Z,11.7
2023-03-25T15:24:00.523Z,12.2
2023-03-25T15:28:00.601Z,12.1
2023-03-25T15:32:00.544Z,11.9
2023-03-25T15:36:00.635Z,12.0
2023-03-25T15:40:00.509Z,11.5
2023-03-25T15:44:01.348Z,11.4
2023-03-25T15:48:00.563Z,11.4
2023-03-25T15:52:00.536Z,11.2
2023-03-25T15:56:00.560Z,11.1
2023-03-25T16:00:00.528Z,11.0
2023-03-25T16:04:00.534Z,11.0
2023-03-25T16:08:00.551Z,10.7
2023-03-25T16:12:00.521Z,10.6
2023-03-25T16:16:00.560Z,10.6
2023-03-25T16:20:00.539Z,10.5
2023-03-25T16:24:00.535Z,10.5
2023-03-25T16:28:00.529Z,10.6
2023-03-25T16:32:00.525Z,10.7
2023-03-25T16:36:00.541Z,10.7
2023-03-25T16:40:00.510Z,10.7
2023-03-25T16:44:00.526Z,10.4
2023-03-25T16:48:00.636Z,10.1
2023-03-25T16:52:00.522Z,9.8
2023-03-25T16:56:00.526Z,9.5
2023-03-25T17:00:00.522Z,9.4
2023-03-25T17:04:00.545Z,8.9
2023-03-25T17:08:00.535Z,8.9
2023-03-25T17:12:00.533Z,8.6
2023-03-25T17:16:00.584Z,8.5
2023-03-25T17:20:00.537Z,8.6
2023-03-25T17:24:00.541Z,8.7
2023-03-25T17:28:00.509Z,8.7
2023-03-25T17:32:00.534Z,8.8
2023-03-25T17:36:00.620Z,8.9
2023-03-25T17:40:00.698Z,9.0
2023-03-25T17:44:00.519Z,8.9
2023-03-25T17:48:00.566Z,8.8
2023-03-25T17:52:00.557Z,8.8
2023-03-25T17:56:00.678Z,8.8
2023-03-25T18:00:00.574Z,8.9
2023-03-25T18:04:00.532Z,8.8
2023-03-25T18:08:00.531Z,9.0
2023-03-25T18:12:00.563Z,8.9
2023-03-25T18:16:00.558Z,8.9
2023-03-25T18:20:00.573Z,8.9
2023-03-25T18:24:00.533Z,8.9
2023-03-25T18:28:00.569Z,9.0
2023-03-25T18:32:00.611Z,9.0
2023-03-25T18:36:00.591Z,8.9
2023-03-25T18:40:00.530Z,9.0
2023-03-25T18:44:00.536Z,9.0
2023-03-25T18:48:00.555Z,9.0
2023-03-25T18:52:00.549Z,9.1
2023-03-25T18:56:00.549Z,9.0
2023-03-25T19:00:00.580Z,8.9
2023-03-25T19:04:00.539Z,8.8
2023-03-25T19:08:00.556Z,8.8
2023-03-25T19:12:00.646Z,8.9
2023-03-25T19:16:00.613Z,9.0
2023-03-25T19:20:00.516Z,8.9
2023-03-25T19:24:00.537Z,9.0
2023-03-25T19:28:00.819Z,9.0
2023-03-25T19:32:00.550Z,8.7
2023-03-25T19:36:00.551Z,8.4
2023-03-25T19:40:00.574Z,8.2
2023-03-25T19:44:00.543Z,8.1
2023-03-25T19:48:00.546Z,7.8
2023-03-25T19:52:00.526Z,7.5
2023-03-25T19:56:00.595Z,7.4
2023-03-25T20:00:00.536Z,7.3
2023-03-25T20:04:00.547Z,7.2
2023-03-25T20:08:00.524Z,7.1
2023-03-25T20:12:00.548Z,6.9
2023-03-25T20:16:00.567Z,6.9
2023-03-25T20:20:00.572Z,6.9
2023-03-25T20:24:00.571Z,6.9
2023-03-25T20:28:00.542Z,6.7
2023-03-25T20:32:00.518Z,6.7
2023-03-25T20:36:00.587Z,6.7
2023-03-25T20:40:00.537Z,6.6
2023-03-25T20:44:00.549Z,6.6
2023-03-25T20:48:00.549Z,6.5
2023-03-25T20:52:00.543Z,6.4
2023-03-25T20:56:00.527Z,6.4
2023-03-25T21:00:00.577Z,6.4
2023-03-25T21:04:00.541Z,6.4
2023-03-25T21:08:00.564Z,6.5
2023-03-25T21:12:00.547Z,6.5
2023-03-25T21:16:00.598Z,6.5
2023-03-25T21:20:01.567Z,6.5
2023-03-25T21:24:00.537Z,6.6
2023-03-25T21:28:00.538Z,6.6
2023-03-25T21:32:00.617Z,6.6
2023-03-25T21:36:00.558Z,6.6
2023-03-25T21:40:00.532Z,6.7
2023-03-25T21:44:00.551Z,6.7
2023-03-25T21:48:00.551Z,6.7
2023-03-25T21:52:00.536Z,6.7
2023-03-25T21:56:00.542Z,6.9
2023-03-25T22:00:00.597Z,7.0
2023-03-25T22:04:00.598Z,7.0
2023-03-25T22:08:00.522Z,7.1
2023-03-25T22:12:00.529Z,7.2
2023-03-25T22:16:00.528Z,7.2
2023-03-25T22:20:00.590Z,7.3
2023-03-25T22:24:00.524Z,7.3
2023-03-25T22:28:00.522Z,7.3
2023-03-25T22:32:00.541Z,7.3
2023-03-25T22:36:00.572Z,7.1
2023-03-25T22:40:00.526Z,7.0
2023-03-25T22:44:00.557Z,6.9
2023-03-25T22:48:00.598Z,7.0
2023-03-25T22:52:00.540Z,7.0
2023-03-25T22:56:00.528Z,6.8
2023-03-25T23:00:00.568Z,7.0
2023-03-25T23:04:00.542Z,7.1
2023-03-25T23:08:00.534Z,7.1
2023-03-25T23:12:00.542Z,7.1
2023-03-25T23:16:00.643Z,7.1
2023-03-25T23:20:00.569Z,7.1
2023-03-25T23:24:00.524Z,7.1
2023-03-25T23:28:00.564Z,7.1
2023-03-25T23:32:00.783Z,7.1
2023-03-25T23:36:00.661Z,7.1
2023-03-25T23:40:00.564Z,7.2
2023-03-25T23:44:00.556Z,7.1
2023-03-25T23:48:00.620Z,7.1
2023-03-25T23:52:00.536Z,7.1
2023-03-25T23:56:00.555Z,7.1
